createdAt,value
2023-07-14T00:01:22.219Z,6.20
2023-07-14T00:03:51.054Z,7.70
2023-07-14T00:06:19.809Z,7.60
2023-07-14T00:08:47.847Z,7.03
2023-07-14T00:11:16.556Z,5.93
2023-07-14T00:13:45.764Z,6.20
2023-07-14T00:16:19.242Z,8.00
2023-07-14T00:18:47.411Z,6.57
2023-07-14T00:21:18.184Z,6.10
2023-07-14T00:23:46.628Z,4.97
2023-07-14T00:26:16.988Z,5.18
2023-07-14T00:28:46.605Z,6.13
2023-07-14T00:31:15.921Z,5.00
2023-07-14T00:33:44.893Z,6.07
2023-07-14T00:36:13.110Z,7.22
2023-07-14T00:38:41.560Z,5.60
2023-07-14T00:41:18.851Z,4.90
2023-07-14T00:43:48.228Z,5.20
2023-07-14T00:46:27.080Z,6.63
2023-07-14T00:48:57.632Z,5.23
2023-07-14T00:51:28.755Z,4.83
2023-07-14T00:53:57.719Z,5.03
2023-07-14T00:56:39.927Z,5.50
2023-07-14T00:59:15.404Z,4.93
2023-07-14T01:02:17.117Z,5.57
2023-07-14T01:04:47.758Z,5.37
2023-07-14T01:07:18.399Z,5.30
2023-07-14T01:09:47.582Z,6.00
2023-07-14T01:12:19.902Z,4.80
2023-07-14T01:14:53.799Z,5.60
2023-07-14T01:17:22.559Z,7.23
2023-07-14T01:19:53.190Z,7.43
2023-07-14T01:22:30.424Z,6.97
2023-07-14T01:25:06.023Z,7.18
2023-07-14T01:27:35.087Z,8.20
2023-07-14T01:30:03.039Z,5.53
2023-07-14T01:32:37.539Z,5.80
2023-07-14T01:35:07.348Z,7.27
2023-07-14T01:37:37.290Z,5.95
2023-07-14T01:40:09.796Z,9.83
2023-07-14T01:42:39.086Z,7.50
2023-07-14T01:45:11.195Z,8.83
2023-07-14T01:47:39.344Z,7.40
2023-07-14T01:50:16.810Z,7.17
2023-07-14T01:52:45.081Z,7.03
2023-07-14T01:55:16.317Z,7.77
2023-07-14T01:57:46.259Z,9.13
2023-07-14T02:00:14.880Z,8.80
2023-07-14T02:02:44.050Z,7.43
2023-07-14T02:05:21.631Z,9.27
2023-07-14T02:07:49.474Z,9.37
2023-07-14T02:10:19.165Z,10.03
2023-07-14T02:12:49.439Z,8.43
2023-07-14T02:15:21.106Z,8.67
2023-07-14T02:17:49.861Z,10.63
2023-07-14T02:20:21.047Z,7.93
2023-07-14T02:22:50.227Z,7.70
2023-07-14T02:25:20.953Z,7.80
2023-07-14T02:27:49.956Z,8.43
2023-07-14T02:30:19.684Z,8.87
2023-07-14T02:32:52.528Z,8.60
2023-07-14T02:35:31.110Z,9.70
2023-07-14T02:38:05.785Z,9.87
2023-07-14T02:40:38.735Z,8.37
2023-07-14T02:43:10.434Z,8.57
2023-07-14T02:45:42.751Z,8.53
2023-07-14T02:48:14.577Z,8.67
2023-07-14T02:50:51.411Z,8.53
2023-07-14T02:53:19.442Z,11.63
2023-07-14T02:55:47.188Z,10.60
2023-07-14T02:58:16.287Z,9.53
2023-07-14T03:00:43.930Z,9.13
2023-07-14T03:03:11.784Z,10.17
2023-07-14T03:05:39.575Z,8.37
2023-07-14T03:08:10.401Z,9.23
2023-07-14T03:10:38.048Z,9.70
2023-07-14T03:13:05.724Z,10.27
2023-07-14T03:15:34.745Z,9.83
2023-07-14T03:18:02.429Z,11.00
2023-07-14T03:20:30.589Z,9.33
2023-07-14T03:22:58.395Z,10.27
2023-07-14T03:25:26.333Z,9.53
2023-07-14T03:27:54.108Z,10.07
2023-07-14T03:30:21.896Z,11.00
2023-07-14T03:32:52.044Z,10.97
2023-07-14T03:35:20.269Z,9.93
2023-07-14T03:37:48.535Z,13.43
2023-07-14T03:40:16.268Z,10.60
2023-07-14T03:42:44.678Z,10.47
2023-07-14T03:45:12.513Z,12.23
2023-07-14T03:47:41.292Z,9.93
2023-07-14T03:50:12.618Z,13.37
2023-07-14T03:52:40.327Z,11.77
2023-07-14T03:55:09.077Z,10.87
2023-07-14T03:57:45.697Z,13.67
2023-07-14T04:00:22.213Z,11.83
2023-07-14T04:02:49.867Z,15.00
2023-07-14T04:05:19.007Z,11.97
2023-07-14T04:07:46.626Z,12.00
2023-07-14T04:10:14.832Z,12.60
2023-07-14T04:12:42.581Z,14.33
2023-07-14T04:15:10.812Z,12.93
2023-07-14T04:17:38.824Z,11.93
2023-07-14T04:20:07.890Z,14.30
2023-07-14T04:22:36.927Z,12.83
2023-07-14T04:25:04.935Z,12.57
2023-07-14T04:27:34.491Z,14.77
2023-07-14T04:30:04.165Z,13.47
2023-07-14T04:32:31.980Z,13.17
2023-07-14T04:34:59.644Z,11.77
2023-07-14T04:37:27.332Z,13.63
2023-07-14T04:39:56.374Z,13.50
2023-07-14T04:42:24.012Z,13.97
2023-07-14T04:44:51.738Z,11.32
2023-07-14T04:47:19.483Z,11.82
2023-07-14T04:49:47.174Z,11.27
2023-07-14T04:52:14.866Z,11.43
2023-07-14T04:54:42.539Z,10.98
2023-07-14T04:57:11.573Z,14.70
2023-07-14T04:59:39.375Z,11.15
2023-07-14T05:02:08.238Z,10.82
2023-07-14T05:05:00.040Z,12.30
2023-07-14T05:07:28.378Z,12.07
2023-07-14T05:09:56.430Z,10.30
2023-07-14T05:12:25.786Z,11.07
2023-07-14T05:14:54.572Z,10.75
2023-07-14T05:17:22.508Z,11.13
2023-07-14T05:19:51.050Z,9.07
2023-07-14T05:22:19.106Z,10.63
2023-07-14T05:24:47.832Z,11.02
2023-07-14T05:27:15.973Z,9.57
2023-07-14T05:29:47.402Z,8.70
2023-07-14T05:32:15.402Z,9.23
2023-07-14T05:34:43.398Z,10.05
2023-07-14T05:37:12.759Z,13.05
2023-07-14T05:39:40.526Z,10.70
2023-07-14T05:42:08.376Z,11.73
2023-07-14T05:44:36.247Z,7.80
2023-07-14T05:47:06.355Z,8.95
2023-07-14T05:49:34.761Z,11.95
2023-07-14T05:52:02.582Z,8.88
2023-07-14T05:54:30.253Z,9.07
2023-07-14T05:56:58.045Z,8.57
2023-07-14T05:59:25.769Z,9.25
2023-07-14T06:01:53.402Z,8.10
2023-07-14T06:04:23.046Z,10.25
2023-07-14T06:06:51.369Z,11.18
2023-07-14T06:09:19.769Z,10.32
2023-07-14T06:11:48.023Z,8.40
2023-07-14T06:14:16.502Z,11.77
2023-07-14T06:16:44.890Z,8.68
2023-07-14T06:19:12.902Z,8.63
2023-07-14T06:21:42.346Z,9.45
2023-07-14T06:24:11.212Z,8.98
2023-07-14T06:26:39.072Z,10.55
2023-07-14T06:29:06.996Z,9.60
2023-07-14T06:31:34.969Z,8.38
2023-07-14T06:34:03.227Z,8.05
2023-07-14T06:36:31.070Z,7.40
2023-07-14T06:39:00.788Z,6.68
2023-07-14T06:41:28.620Z,7.30
2023-07-14T06:43:56.254Z,9.35
2023-07-14T06:46:24.037Z,7.25
2023-07-14T06:48:51.754Z,6.90
2023-07-14T06:51:19.765Z,10.50
2023-07-14T06:53:47.943Z,8.25
2023-07-14T06:56:17.079Z,7.18
2023-07-14T06:58:44.746Z,8.15
2023-07-14T07:01:12.679Z,7.55
2023-07-14T07:03:40.530Z,10.32
2023-07-14T07:06:08.441Z,7.03
2023-07-14T07:08:36.140Z,6.15
2023-07-14T07:11:03.830Z,7.00
2023-07-14T07:13:32.878Z,7.55
2023-07-14T07:16:00.506Z,7.53
2023-07-14T07:18:29.638Z,9.65
2023-07-14T07:20:57.593Z,6.38
2023-07-14T07:23:25.315Z,7.07
2023-07-14T07:25:55.259Z,7.63
2023-07-14T07:28:23.957Z,8.77
2023-07-14T07:30:53.036Z,11.10
2023-07-14T07:33:20.725Z,9.65
2023-07-14T07:35:48.363Z,10.27
2023-07-14T07:38:16.094Z,8.07
2023-07-14T07:40:46.907Z,7.68
2023-07-14T07:43:14.617Z,7.63
2023-07-14T07:45:49.071Z,7.07
2023-07-14T07:48:18.383Z,6.93
2023-07-14T07:50:46.026Z,4.78
2023-07-14T07:53:13.678Z,5.60
2023-07-14T07:55:41.334Z,9.38
2023-07-14T07:58:09.113Z,8.65
2023-07-14T08:00:37.227Z,5.85
2023-07-14T08:03:04.956Z,5.70
2023-07-14T08:05:34.080Z,6.88
2023-07-14T08:08:01.745Z,9.10
2023-07-14T08:10:29.376Z,5.35
2023-07-14T08:12:57.000Z,5.25
2023-07-14T08:15:24.635Z,5.40
2023-07-14T08:17:57.009Z,6.28
2023-07-14T08:20:25.027Z,5.88
2023-07-14T08:22:54.304Z,5.45
2023-07-14T08:25:22.825Z,7.25
2023-07-14T08:27:51.399Z,4.15
2023-07-14T08:30:21.177Z,4.20
2023-07-14T08:32:50.699Z,4.15
2023-07-14T08:35:19.410Z,5.80
2023-07-14T08:37:47.463Z,6.47
2023-07-14T08:40:22.173Z,6.45
2023-07-14T08:43:04.742Z,6.28
2023-07-14T08:45:38.840Z,5.32
2023-07-14T08:48:19.028Z,4.75
2023-07-14T08:50:51.906Z,5.68
2023-07-14T08:53:23.786Z,5.97
2023-07-14T08:55:57.381Z,4.63
2023-07-14T08:58:29.413Z,5.15
2023-07-14T09:01:09.937Z,4.32
2023-07-14T09:03:45.363Z,5.60
2023-07-14T09:06:24.969Z,7.38
2023-07-14T09:08:54.049Z,4.57
2023-07-14T09:11:35.408Z,7.38
2023-07-14T09:14:12.446Z,3.67
2023-07-14T09:16:47.720Z,4.63
2023-07-14T09:19:29.605Z,5.47
2023-07-14T09:22:05.874Z,4.32
2023-07-14T09:24:42.433Z,4.30
2023-07-14T09:27:22.216Z,3.40
2023-07-14T09:29:50.490Z,4.03
2023-07-14T09:32:27.470Z,3.20
2023-07-14T09:34:58.515Z,6.68
2023-07-14T09:37:30.056Z,3.25
2023-07-14T09:40:16.181Z,3.17
2023-07-14T09:42:46.808Z,4.60
2023-07-14T09:45:18.511Z,6.03
2023-07-14T09:47:48.789Z,4.80
2023-07-14T09:50:19.255Z,2.70
2023-07-14T09:52:56.025Z,5.35
2023-07-14T09:55:24.995Z,4.38
2023-07-14T09:58:09.924Z,5.80
2023-07-14T10:00:41.531Z,4.45
2023-07-14T10:03:12.247Z,6.20
2023-07-14T10:05:50.498Z,3.83
2023-07-14T10:08:34.378Z,5.03
2023-07-14T10:11:20.291Z,4.90
2023-07-14T10:13:56.086Z,4.75
2023-07-14T10:16:24.262Z,3.42
2023-07-14T10:18:56.367Z,5.43
2023-07-14T10:21:28.216Z,4.30
2023-07-14T10:24:00.442Z,4.88
2023-07-14T10:26:30.334Z,4.32
2023-07-14T10:29:00.410Z,9.13
2023-07-14T10:31:35.573Z,4.45
2023-07-14T10:34:33.568Z,5.10
2023-07-14T10:37:06.382Z,6.88
2023-07-14T10:39:39.702Z,5.25
2023-07-14T10:42:13.188Z,5.85
2023-07-14T10:44:47.071Z,5.22
2023-07-14T10:47:19.992Z,5.75
2023-07-14T10:49:57.869Z,5.60
2023-07-14T10:52:29.778Z,4.97
2023-07-14T10:55:01.979Z,5.50
2023-07-14T10:57:39.371Z,5.18
2023-07-14T11:00:22.844Z,4.63
2023-07-14T11:02:58.695Z,4.57
2023-07-14T11:05:28.851Z,6.40
2023-07-14T11:07:56.780Z,5.38
2023-07-14T11:10:33.733Z,4.80
2023-07-14T11:13:11.454Z,3.78
2023-07-14T11:15:45.421Z,4.90
2023-07-14T11:18:27.712Z,4.05
2023-07-14T11:21:14.313Z,5.38
2023-07-14T11:23:50.938Z,5.47
2023-07-14T11:26:28.746Z,5.47
2023-07-14T11:29:05.402Z,3.85
2023-07-14T11:31:38.532Z,3.70
2023-07-14T11:34:26.084Z,4.45
2023-07-14T11:37:04.619Z,6.60
2023-07-14T11:39:44.544Z,5.68
2023-07-14T11:42:20.198Z,6.80
2023-07-14T11:44:49.675Z,3.35
2023-07-14T11:47:23.422Z,6.18
2023-07-14T11:49:54.786Z,5.68
2023-07-14T11:52:24.744Z,5.15
2023-07-14T11:55:05.426Z,4.15
2023-07-14T11:57:48.793Z,4.10
2023-07-14T12:00:24.798Z,3.60
2023-07-14T12:03:03.318Z,5.13
2023-07-14T12:05:34.696Z,5.63
2023-07-14T12:08:22.645Z,5.07
2023-07-14T12:10:50.628Z,5.30
2023-07-14T12:13:30.029Z,4.80
2023-07-14T12:16:25.505Z,4.38
2023-07-14T12:19:08.207Z,3.33
2023-07-14T12:21:45.348Z,3.47
2023-07-14T12:24:17.521Z,5.57
2023-07-14T12:26:52.989Z,4.25
2023-07-14T12:29:22.725Z,4.45
2023-07-14T12:31:52.764Z,5.40
2023-07-14T12:34:24.368Z,5.00
2023-07-14T12:36:52.507Z,4.07
2023-07-14T12:39:20.243Z,4.15
2023-07-14T12:41:50.399Z,3.63
2023-07-14T12:44:25.046Z,4.32
2023-07-14T12:46:55.568Z,5.30
2023-07-14T12:49:33.100Z,5.38
2023-07-14T12:52:07.106Z,5.32
2023-07-14T12:54:34.848Z,4.22
2023-07-14T12:57:04.316Z,4.80
2023-07-14T12:59:32.954Z,4.72
2023-07-14T13:02:00.652Z,5.03
2023-07-14T13:04:29.828Z,3.95
2023-07-14T13:07:05.627Z,4.95
2023-07-14T13:09:33.739Z,5.45
2023-07-14T13:12:01.667Z,5.22
2023-07-14T13:14:31.882Z,6.32
2023-07-14T13:17:00.416Z,4.35
2023-07-14T13:19:39.871Z,4.40
2023-07-14T13:22:20.873Z,3.83
2023-07-14T13:25:00.273Z,5.72
2023-07-14T13:27:28.744Z,6.28
2023-07-14T13:30:00.902Z,8.05
2023-07-14T13:32:29.865Z,5.78
2023-07-14T13:35:01.414Z,6.03
2023-07-14T13:37:30.481Z,5.82
2023-07-14T13:39:59.613Z,5.80
2023-07-14T13:42:34.567Z,7.30
2023-07-14T13:45:04.584Z,4.97
2023-07-14T13:47:44.632Z,6.70
2023-07-14T13:50:14.361Z,7.32
2023-07-14T13:52:49.234Z,8.57
2023-07-14T13:55:19.301Z,5.68
2023-07-14T13:57:50.360Z,7.47
2023-07-14T14:00:20.228Z,6.07
2023-07-14T14:02:51.021Z,5.43
2023-07-14T14:05:22.632Z,5.65
2023-07-14T14:07:52.114Z,6.68
2023-07-14T14:10:21.890Z,7.50
2023-07-14T14:12:49.593Z,6.13
2023-07-14T14:15:18.850Z,6.30
2023-07-14T14:17:49.953Z,5.20
2023-07-14T14:20:22.815Z,7.72
2023-07-14T14:22:50.661Z,6.30
2023-07-14T14:25:20.185Z,6.45
2023-07-14T14:27:48.893Z,8.07
2023-07-14T14:30:16.917Z,5.47
2023-07-14T14:32:46.045Z,6.57
2023-07-14T14:35:27.272Z,4.57
2023-07-14T14:37:56.987Z,5.55
2023-07-14T14:40:25.102Z,4.93
2023-07-14T14:42:52.847Z,4.75
2023-07-14T14:45:22.783Z,8.02
2023-07-14T14:47:50.600Z,4.60
2023-07-14T14:50:19.291Z,6.10
2023-07-14T14:52:49.759Z,6.45
2023-07-14T14:55:20.395Z,4.15
2023-07-14T14:57:59.572Z,5.43
2023-07-14T15:00:30.556Z,4.43
2023-07-14T15:02:58.276Z,6.15
2023-07-14T15:05:28.820Z,4.38
2023-07-14T15:08:01.466Z,5.93
2023-07-14T15:10:29.920Z,4.97
2023-07-14T15:12:57.634Z,7.28
2023-07-14T15:15:28.596Z,4.10
2023-07-14T15:17:56.840Z,4.88
2023-07-14T15:20:24.782Z,4.95
2023-07-14T15:22:53.374Z,5.45
2023-07-14T15:25:24.892Z,5.22
2023-07-14T15:27:53.808Z,6.00
2023-07-14T15:30:26.103Z,5.40
2023-07-14T15:32:54.705Z,5.00
2023-07-14T15:35:24.632Z,5.60
2023-07-14T15:37:52.839Z,4.68
2023-07-14T15:40:24.481Z,4.32
2023-07-14T15:42:54.441Z,4.25
2023-07-14T15:45:24.333Z,5.43
2023-07-14T15:47:52.879Z,4.78
2023-07-14T15:50:23.700Z,6.15
2023-07-14T15:52:57.529Z,5.43
2023-07-14T15:55:36.630Z,5.75
2023-07-14T15:58:04.316Z,4.30
2023-07-14T16:00:32.008Z,3.83
2023-07-14T16:02:59.744Z,5.43
2023-07-14T16:05:27.550Z,5.85
2023-07-14T16:07:58.070Z,5.40
2023-07-14T16:10:28.317Z,3.80
2023-07-14T16:12:55.957Z,4.18
2023-07-14T16:15:26.770Z,6.68
2023-07-14T16:17:56.067Z,4.25
2023-07-14T16:20:29.718Z,4.47
2023-07-14T16:23:01.671Z,4.47
2023-07-14T16:25:32.462Z,4.88
2023-07-14T16:28:00.287Z,4.50
2023-07-14T16:30:30.685Z,4.80
2023-07-14T16:32:58.884Z,5.13
2023-07-14T16:35:29.423Z,5.22
2023-07-14T16:38:03.297Z,5.65
2023-07-14T16:40:35.736Z,7.35
2023-07-14T16:43:04.728Z,5.45
2023-07-14T16:45:33.738Z,4.25
2023-07-14T16:48:02.073Z,4.63
2023-07-14T16:50:30.399Z,3.88
2023-07-14T16:52:58.092Z,6.30
2023-07-14T16:55:28.024Z,5.63
2023-07-14T16:57:58.559Z,4.78
2023-07-14T17:00:28.734Z,6.18
2023-07-14T17:02:59.157Z,4.45
2023-07-14T17:05:29.829Z,5.55
2023-07-14T17:07:57.976Z,4.32
2023-07-14T17:10:28.412Z,4.30
2023-07-14T17:13:20.259Z,3.90
2023-07-14T17:15:54.063Z,5.97
2023-07-14T17:18:26.079Z,4.25
2023-07-14T17:20:54.988Z,4.65
2023-07-14T17:23:27.443Z,5.55
2023-07-14T17:25:56.455Z,3.83
2023-07-14T17:28:27.641Z,5.13
2023-07-14T17:30:57.015Z,5.28
2023-07-14T17:33:27.829Z,6.93
2023-07-14T17:35:58.758Z,6.10
2023-07-14T17:38:30.094Z,4.95
2023-07-14T17:40:58.093Z,5.05
2023-07-14T17:43:27.324Z,5.30
2023-07-14T17:45:55.565Z,5.50
2023-07-14T17:48:23.227Z,5.72
2023-07-14T17:50:53.312Z,4.05
2023-07-14T17:53:23.344Z,4.47
2023-07-14T17:55:51.499Z,7.15
2023-07-14T17:58:20.959Z,5.97
2023-07-14T18:00:51.009Z,6.47
2023-07-14T18:03:25.282Z,5.50
2023-07-14T18:05:53.279Z,5.88
2023-07-14T18:08:22.811Z,5.72
2023-07-14T18:10:54.909Z,5.15
2023-07-14T18:13:26.808Z,6.07
2023-07-14T18:15:56.773Z,5.35
2023-07-14T18:18:27.775Z,6.15
2023-07-14T18:21:00.090Z,4.97
2023-07-14T18:23:30.163Z,5.85
2023-07-14T18:25:58.328Z,7.18
2023-07-14T18:28:29.295Z,6.45
2023-07-14T18:30:59.499Z,5.32
2023-07-14T18:33:29.666Z,6.03
2023-07-14T18:35:57.893Z,6.22
2023-07-14T18:38:27.197Z,6.55
2023-07-14T18:40:58.539Z,4.15
2023-07-14T18:43:32.810Z,5.90
2023-07-14T18:46:02.140Z,5.85
2023-07-14T18:48:31.522Z,4.35
2023-07-14T18:51:14.911Z,6.82
2023-07-14T18:53:42.735Z,4.68
2023-07-14T18:56:11.128Z,5.43
2023-07-14T18:58:40.185Z,4.60
2023-07-14T19:01:15.901Z,6.32
2023-07-14T19:03:44.630Z,4.78
2023-07-14T19:06:18.681Z,6.60
2023-07-14T19:08:46.710Z,6.60
2023-07-14T19:11:17.580Z,4.65
2023-07-14T19:13:46.101Z,5.43
2023-07-14T19:16:20.521Z,5.30
2023-07-14T19:18:48.349Z,5.22
2023-07-14T19:21:21.084Z,4.80
2023-07-14T19:23:48.944Z,5.97
2023-07-14T19:26:16.991Z,7.55
2023-07-14T19:28:45.723Z,6.55
2023-07-14T19:31:22.739Z,4.13
2023-07-14T19:33:51.229Z,4.60
2023-07-14T19:36:19.672Z,5.60
2023-07-14T19:38:47.889Z,6.70
2023-07-14T19:41:17.755Z,5.30
2023-07-14T19:43:47.435Z,5.60
2023-07-14T19:46:18.185Z,5.22
2023-07-14T19:48:47.433Z,5.68
2023-07-14T19:51:24.108Z,7.75
2023-07-14T19:53:52.731Z,6.85
2023-07-14T19:56:22.426Z,4.43
2023-07-14T19:58:50.377Z,6.80
2023-07-14T20:01:18.643Z,5.53
2023-07-14T20:03:48.436Z,4.53
2023-07-14T20:06:18.549Z,4.65
2023-07-14T20:08:48.865Z,4.97
2023-07-14T20:11:16.906Z,6.22
2023-07-14T20:13:44.832Z,5.38
2023-07-14T20:16:14.644Z,6.18
2023-07-14T20:18:43.425Z,5.00
2023-07-14T20:21:20.050Z,5.45
2023-07-14T20:23:47.730Z,5.35
2023-07-14T20:26:18.177Z,7.55
2023-07-14T20:28:47.974Z,6.13
2023-07-14T20:31:19.023Z,5.78
2023-07-14T20:33:47.558Z,7.40
2023-07-14T20:36:18.852Z,5.40
2023-07-14T20:38:48.924Z,5.22
2023-07-14T20:41:20.007Z,5.50
2023-07-14T20:43:49.372Z,5.95
2023-07-14T20:46:23.052Z,8.18
2023-07-14T20:49:06.061Z,5.05
2023-07-14T20:51:42.231Z,7.57
2023-07-14T20:54:13.969Z,4.85
2023-07-14T20:56:41.838Z,5.32
2023-07-14T20:59:09.573Z,6.93
2023-07-14T21:01:37.354Z,7.95
2023-07-14T21:04:19.064Z,7.20
2023-07-14T21:06:48.097Z,5.75
2023-07-14T21:09:15.717Z,6.28
2023-07-14T21:11:44.662Z,6.65
2023-07-14T21:14:12.660Z,5.05
2023-07-14T21:16:42.991Z,7.05
2023-07-14T21:19:11.029Z,5.20
2023-07-14T21:21:39.480Z,5.93
2023-07-14T21:24:18.389Z,5.35
2023-07-14T21:26:46.282Z,5.50
2023-07-14T21:29:14.078Z,6.18
2023-07-14T21:31:44.268Z,4.93
2023-07-14T21:34:15.759Z,5.32
2023-07-14T21:36:43.864Z,5.78
2023-07-14T21:39:15.369Z,4.90
2023-07-14T21:41:44.045Z,5.03
2023-07-14T21:44:14.609Z,6.78
2023-07-14T21:46:44.140Z,5.22
2023-07-14T21:49:12.839Z,7.63
2023-07-14T21:51:41.293Z,4.70
2023-07-14T21:54:15.080Z,7.63
2023-07-14T21:56:43.248Z,5.80
2023-07-14T21:59:13.744Z,7.07
2023-07-14T22:01:42.540Z,5.53
2023-07-14T22:04:18.583Z,5.80
2023-07-14T22:06:48.068Z,6.20
2023-07-14T22:09:18.532Z,6.78
2023-07-14T22:11:47.123Z,6.55
2023-07-14T22:14:15.586Z,6.53
2023-07-14T22:16:43.769Z,6.97
2023-07-14T22:19:12.368Z,5.40
2023-07-14T22:21:42.408Z,7.70
2023-07-14T22:24:11.291Z,8.50
2023-07-14T22:26:41.619Z,7.07
2023-07-14T22:29:10.600Z,5.75
2023-07-14T22:31:39.698Z,5.63
2023-07-14T22:34:15.073Z,8.02
2023-07-14T22:36:42.779Z,7.25
2023-07-14T22:39:12.748Z,5.93
2023-07-14T22:41:44.897Z,5.57
2023-07-14T22:44:15.468Z,6.22
2023-07-14T22:46:43.223Z,6.82
2023-07-14T22:49:11.333Z,6.05
2023-07-14T22:51:40.039Z,7.60
2023-07-14T22:54:08.985Z,6.78
2023-07-14T22:56:36.662Z,5.45
2023-07-14T22:59:05.693Z,5.22
2023-07-14T23:01:35.563Z,7.95
2023-07-14T23:04:03.890Z,4.45
2023-07-14T23:06:31.622Z,5.15
2023-07-14T23:09:00.284Z,6.38
2023-07-14T23:11:31.520Z,6.13
2023-07-14T23:13:59.714Z,5.13
2023-07-14T23:16:29.721Z,5.45
2023-07-14T23:18:57.827Z,7.18
2023-07-14T23:21:28.877Z,5.18
2023-07-14T23:23:58.805Z,5.10
2023-07-14T23:26:28.041Z,8.80
2023-07-14T23:28:55.915Z,5.50
2023-07-14T23:31:26.725Z,5.70
2023-07-14T23:33:56.905Z,7.68
2023-07-14T23:36:26.517Z,6.18
2023-07-14T23:38:54.573Z,7.05
2023-07-14T23:41:25.612Z,4.75
2023-07-14T23:43:54.348Z,5.53
2023-07-14T23:46:22.846Z,7.45
2023-07-14T23:48:50.830Z,6.68
2023-07-14T23:51:28.664Z,6.25
2023-07-14T23:53:57.342Z,6.35
2023-07-14T23:56:25.412Z,6.35
2023-07-14T23:58:53.159Z,5.25
